Time,TemperatureF,DewpointF,PressureIn,WindDirection,WindDirectionDegrees,WindSpeedMPH,WindSpeedGustMPH,Humidity,HourlyPrecipIn,Conditions,Clouds,dailyrainin,SoftwareType,DateUTC
2013-05-26 07:20:00,60.3,58.0,30.18,NW,318,0.0,0.0,92,0.00,,,0.00,VWS V14.00,2013-05-26 11:20:00,
2013-05-26 07:25:00,60.4,58.1,30.18,NW,318,1.0,2.0,92,0.00,,,0.00,VWS V14.00,2013-05-26 11:25:00,
2013-05-26 07:30:00,60.6,58.0,30.18,NW,318,1.0,2.0,91,0.00,,,0.00,VWS V14.00,2013-05-26 11:30:00,
2013-05-26 07:35:00,60.9,58.6,30.17,NW,318,0.0,1.0,92,0.00,,,0.00,VWS V14.00,2013-05-26 11:35:00,
2013-05-26 07:41:00,61.1,58.5,30.18,NW,318,0.0,2.0,91,0.00,,,0.00,VWS V14.00,2013-05-26 11:41:00,
2013-05-26 07:46:00,61.2,58.2,30.18,West,277,0.0,3.0,90,0.00,,,0.00,VWS V14.00,2013-05-26 11:46:00,
2013-05-26 07:51:00,61.3,58.0,30.18,West,276,0.0,1.0,89,0.00,,,0.00,VWS V14.00,2013-05-26 11:51:00,
2013-05-26 07:56:00,61.4,58.5,30.18,WNW,295,1.0,3.0,90,0.00,,,0.00,VWS V14.00,2013-05-26 11:56:00,
2013-05-26 08:01:00,61.5,58.2,30.18,WNW,295,0.0,0.0,89,0.00,,,0.00,VWS V14.00,2013-05-26 12:01:00,
2013-05-26 08:06:00,61.6,58.3,30.18,WNW,297,0.0,3.0,89,0.00,,,0.00,VWS V14.00,2013-05-26 12:06:00,
2013-05-26 08:12:00,61.9,58.9,30.18,WNW,297,1.0,1.0,90,0.00,,,0.00,VWS V14.00,2013-05-26 12:12:00,
2013-05-26 08:17:00,61.9,58.3,30.18,WNW,297,0.0,1.0,88,0.00,,,0.00,VWS V14.00,2013-05-26 12:17:00,
2013-05-26 08:22:00,61.9,58.3,30.18,WNW,296,0.0,0.0,88,0.00,,,0.00,VWS V14.00,2013-05-26 12:22:00,
2013-05-26 08:27:00,61.9,58.3,30.18,WNW,298,0.0,2.0,88,0.00,,,0.00,VWS V14.00,2013-05-26 12:27:00,
2013-05-26 08:32:00,62.0,58.4,30.19,WNW,298,0.0,0.0,88,0.00,,,0.00,VWS V14.00,2013-05-26 12:32:00,
2013-05-26 08:37:00,62.0,58.1,30.18,WNW,298,0.0,1.0,87,0.00,,,0.00,VWS V14.00,2013-05-26 12:37:00,
2013-05-26 08:42:00,62.1,57.9,30.18,WNW,298,0.0,0.0,86,0.00,,,0.00,VWS V14.00,2013-05-26 12:42:00,
2013-05-26 08:47:00,62.3,58.1,30.19,WNW,298,0.0,1.0,86,0.00,,,0.00,VWS V14.00,2013-05-26 12:47:00,
2013-05-26 08:53:00,62.7,58.5,30.19,WNW,298,0.0,1.0,86,0.00,,,0.00,VWS V14.00,2013-05-26 12:53:00,
2013-05-26 08:58:00,63.0,58.4,30.19,WNW,298,0.0,2.0,85,0.00,,,0.00,VWS V14.00,2013-05-26 12:58:00,
2013-05-26 09:03:00,63.2,57.6,30.19,WNW,298,0.0,0.0,82,0.00,,,0.00,VWS V14.00,2013-05-26 13:03:00,
2013-05-26 09:08:00,63.4,57.1,30.19,WNW,298,0.0,1.0,80,0.00,,,0.00,VWS V14.00,2013-05-26 13:08:00,
2013-05-26 09:13:00,63.6,57.7,30.19,WNW,298,0.0,0.0,81,0.00,,,0.00,VWS V14.00,2013-05-26 13:13:00,
2013-05-26 09:18:00,63.7,57.8,30.19,WNW,298,0.0,1.0,81,0.00,,,0.00,VWS V14.00,2013-05-26 13:18:00,
2013-05-26 09:24:00,63.9,57.6,30.19,WNW,298,0.0,0.0,80,0.00,,,0.00,VWS V14.00,2013-05-26 13:24:00,
2013-05-26 09:29:00,64.0,57.7,30.20,WNW,298,0.0,0.0,80,0.00,,,0.00,VWS V14.00,2013-05-26 13:29:00,
2013-05-26 09:34:00,64.3,57.3,30.20,WNW,298,0.0,0.0,78,0.00,,,0.00,VWS V14.00,2013-05-26 13:34:00,
2013-05-26 09:39:00,64.5,56.8,30.20,NNE,21,1.0,2.0,76,0.00,,,0.00,VWS V14.00,2013-05-26 13:39:00,
2013-05-26 09:44:00,64.3,56.6,30.20,NNE,28,0.0,2.0,76,0.00,,,0.00,VWS V14.00,2013-05-26 13:44:00,
2013-05-26 09:49:00,64.3,57.0,30.20,NNE,28,1.0,2.0,77,0.00,,,0.00,VWS V14.00,2013-05-26 13:49:00,
2013-05-26 09:54:00,64.5,56.8,30.20,WNW,300,1.0,3.0,76,0.00,,,0.00,VWS V14.00,2013-05-26 13:54:00,
2013-05-26 10:00:00,64.5,56.8,30.21,WNW,300,0.0,3.0,76,0.00,,,0.00,VWS V14.00,2013-05-26 14:00:00,
2013-05-26 10:05:00,64.5,56.4,30.21,NW,305,1.0,2.0,75,0.00,,,0.00,VWS V14.00,2013-05-26 14:05:00,
2013-05-26 10:10:00,64.4,56.7,30.22,North,355,0.0,2.0,76,0.00,,,0.00,VWS V14.00,2013-05-26 14:10:00,
2013-05-26 10:15:00,64.3,56.2,30.22,North,355,0.0,1.0,75,0.00,,,0.00,VWS V14.00,2013-05-26 14:15:00,
2013-05-26 10:20:00,64.3,57.0,30.22,North,355,0.0,1.0,77,0.00,,,0.00,VWS V14.00,2013-05-26 14:20:00,
2013-05-26 10:25:00,64.1,56.0,30.22,NNE,28,1.0,2.0,75,0.00,,,0.00,VWS V14.00,2013-05-26 14:25:00,
2013-05-26 10:31:00,64.0,56.3,30.22,NNE,28,0.0,2.0,76,0.00,,,0.00,VWS V14.00,2013-05-26 14:31:00,
2013-05-26 10:36:00,63.8,55.7,30.22,NNE,28,0.0,2.0,75,0.00,,,0.00,VWS V14.00,2013-05-26 14:36:00,
2013-05-26 10:41:00,63.5,56.2,30.22,NNE,28,0.0,2.0,77,0.00,,,0.00,VWS V14.00,2013-05-26 14:41:00,
2013-05-26 10:46:00,63.3,55.2,30.21,NNE,28,0.0,2.0,75,0.00,,,0.00,VWS V14.00,2013-05-26 14:46:00,
2013-05-26 10:51:00,63.2,55.2,30.21,NE,49,0.0,0.0,75,0.00,,,0.00,VWS V14.00,2013-05-26 14:51:00,
2013-05-26 10:56:00,63.2,56.2,30.21,NE,49,0.0,0.0,78,0.00,,,0.00,VWS V14.00,2013-05-26 14:56:00,
2013-05-26 11:01:00,63.2,54.8,30.21,NE,49,0.0,0.0,74,0.00,,,0.00,VWS V14.00,2013-05-26 15:01:00,
2013-05-26 11:07:00,63.2,54.8,30.21,NE,49,1.0,1.0,74,0.00,,,0.00,VWS V14.00,2013-05-26 15:07:00,
2013-05-26 11:12:00,63.2,55.9,30.21,NE,49,0.0,0.0,77,0.00,,,0.00,VWS V14.00,2013-05-26 15:12:00,
2013-05-26 11:17:00,63.2,55.9,30.22,NE,49,0.0,1.0,77,0.00,,,0.00,VWS V14.00,2013-05-26 15:17:00,
2013-05-26 11:22:00,63.3,56.0,30.22,NNE,28,0.0,0.0,77,0.00,,,0.00,VWS V14.00,2013-05-26 15:22:00,
2013-05-26 11:27:00,63.5,56.2,30.22,NNE,28,0.0,0.0,77,0.00,,,0.00,VWS V14.00,2013-05-26 15:27:00,
2013-05-26 11:32:00,63.9,56.6,30.21,NNE,28,0.0,1.0,77,0.00,,,0.00,VWS V14.00,2013-05-26 15:32:00,
2013-05-26 11:38:00,64.1,56.0,30.21,NE,51,2.0,2.0,75,0.00,,,0.00,VWS V14.00,2013-05-26 15:38:00,
2013-05-26 11:43:00,64.4,55.6,30.21,NE,51,0.0,1.0,73,0.00,,,0.00,VWS V14.00,2013-05-26 15:43:00,
2013-05-26 11:48:00,64.8,56.3,30.21,NE,51,0.0,1.0,74,0.00,,,0.00,VWS V14.00,2013-05-26 15:48:00,
2013-05-26 11:53:00,65.1,57.0,30.21,NE,51,0.0,0.0,75,0.00,,,0.00,VWS V14.00,2013-05-26 15:53:00,
2013-05-26 11:58:00,65.5,57.0,30.21,NNE,32,0.0,1.0,74,0.00,,,0.00,VWS V14.00,2013-05-26 15:58:00,
2013-05-26 12:03:00,66.0,56.3,30.21,WNW,298,3.0,3.0,71,0.00,,,0.00,VWS V14.00,2013-05-26 16:03:00,
2013-05-26 12:09:00,66.4,56.7,30.20,NNW,340,2.0,3.0,71,0.00,,,0.00,VWS V14.00,2013-05-26 16:09:00,
2013-05-26 12:14:00,67.3,56.4,30.20,North,9,1.0,2.0,68,0.00,,,0.00,VWS V14.00,2013-05-26 16:14:00,
2013-05-26 12:19:00,67.7,56.0,30.21,North,9,1.0,2.0,66,0.00,,,0.00,VWS V14.00,2013-05-26 16:19:00,
2013-05-26 12:24:00,67.9,55.7,30.21,North,9,1.0,2.0,65,0.00,,,0.00,VWS V14.00,2013-05-26 16:24:00,
2013-05-26 12:29:00,68.2,56.0,30.20,NE,36,2.0,3.0,65,0.00,,,0.00,VWS V14.00,2013-05-26 16:29:00,
2013-05-26 12:34:00,68.5,56.7,30.21,NE,36,0.0,2.0,66,0.00,,,0.00,VWS V14.00,2013-05-26 16:34:00,
2013-05-26 12:40:00,69.1,56.4,30.20,NE,53,0.0,4.0,64,0.00,,,0.00,VWS V14.00,2013-05-26 16:40:00,
2013-05-26 12:45:00,69.0,55.0,30.20,NE,43,2.0,3.0,61,0.00,,,0.00,VWS V14.00,2013-05-26 16:45:00,
2013-05-26 12:50:00,68.8,54.4,30.20,ENE,67,0.0,3.0,60,0.00,,,0.00,VWS V14.00,2013-05-26 16:50:00,
2013-05-26 12:55:00,68.8,55.7,30.20,NE,43,1.0,3.0,63,0.00,,,0.00,VWS V14.00,2013-05-26 16:55:00,
2013-05-26 13:00:00,69.0,55.5,30.19,NE,42,0.0,3.0,62,0.00,,,0.00,VWS V14.00,2013-05-26 17:00:00,
2013-05-26 13:06:00,69.5,55.9,30.19,NNE,14,0.0,2.0,62,0.00,,,0.00,VWS V14.00,2013-05-26 17:06:00,
2013-05-26 13:11:00,69.8,55.8,30.19,NE,44,0.0,2.0,61,0.00,,,0.00,VWS V14.00,2013-05-26 17:11:00,
2013-05-26 13:16:00,70.2,56.6,30.19,NE,52,1.0,3.0,62,0.00,,,0.00,VWS V14.00,2013-05-26 17:16:00,
2013-05-26 13:21:00,70.8,57.2,30.19,WNW,288,3.0,4.0,62,0.00,,,0.00,VWS V14.00,2013-05-26 17:21:00,
2013-05-26 13:26:00,71.4,59.0,30.18,WSW,250,4.0,4.0,65,0.00,,,0.00,VWS V14.00,2013-05-26 17:26:00,
2013-05-26 13:32:00,71.6,57.0,30.18,SW,221,0.0,0.0,60,0.00,,,0.00,VWS V14.00,2013-05-26 17:32:00,
2013-05-26 13:37:00,72.6,57.0,30.18,NE,53,2.0,3.0,58,0.00,,,0.00,VWS V14.00,2013-05-26 17:37:00,
2013-05-26 13:42:00,72.8,56.7,30.18,SE,140,3.0,5.0,57,0.00,,,0.00,VWS V14.00,2013-05-26 17:42:00,
2013-05-26 13:47:00,73.1,57.9,30.18,NE,49,0.0,5.0,59,0.00,,,0.00,VWS V14.00,2013-05-26 17:47:00,
2013-05-26 13:52:00,73.2,55.1,30.18,ENE,67,2.0,4.0,53,0.00,,,0.00,VWS V14.00,2013-05-26 17:52:00,
2013-05-26 13:57:00,73.3,57.7,30.18,NE,55,1.0,4.0,58,0.00,,,0.00,VWS V14.00,2013-05-26 17:57:00,
2013-05-26 14:02:00,73.4,55.8,30.17,WSW,246,3.0,3.0,54,0.00,,,0.00,VWS V14.00,2013-05-26 18:02:00,
2013-05-26 14:07:00,73.9,56.2,30.17,SE,132,0.0,3.0,54,0.00,,,0.00,VWS V14.00,2013-05-26 18:07:00,
2013-05-26 14:13:00,74.3,55.6,30.17,WNW,289,2.0,4.0,52,0.00,,,0.00,VWS V14.00,2013-05-26 18:13:00,
2013-05-26 14:18:00,74.7,57.5,30.17,WSW,256,3.0,4.0,55,0.00,,,0.00,VWS V14.00,2013-05-26 18:18:00,
2013-05-26 14:23:00,75.4,56.0,30.17,North,350,1.0,3.0,51,0.00,,,0.00,VWS V14.00,2013-05-26 18:23:00,
2013-05-26 14:28:00,76.2,52.7,30.18,NNE,30,1.0,3.0,44,0.00,,,0.00,VWS V14.00,2013-05-26 18:28:00,
2013-05-26 14:33:00,76.5,53.0,30.17,WNW,302,1.0,3.0,44,0.00,,,0.00,VWS V14.00,2013-05-26 18:33:00,
2013-05-26 14:38:00,76.6,54.3,30.17,NNE,30,0.0,4.0,46,0.00,,,0.00,VWS V14.00,2013-05-26 18:38:00,
2013-05-26 14:44:00,76.7,53.2,30.17,ENE,67,2.0,3.0,44,0.00,,,0.00,VWS V14.00,2013-05-26 18:44:00,
2013-05-26 14:49:00,76.8,53.9,30.17,ENE,67,1.0,3.0,45,0.00,,,0.00,VWS V14.00,2013-05-26 18:49:00,
2013-05-26 14:54:00,76.8,54.5,30.17,NE,38,0.0,3.0,46,0.00,,,0.00,VWS V14.00,2013-05-26 18:54:00,
2013-05-26 14:59:00,77.0,54.1,30.17,West,273,0.0,3.0,45,0.00,,,0.00,VWS V14.00,2013-05-26 18:59:00,
2013-05-26 15:04:00,77.3,54.9,30.16,West,272,1.0,2.0,46,0.00,,,0.00,VWS V14.00,2013-05-26 19:04:00,
2013-05-26 15:09:00,77.7,54.1,30.16,North,9,0.0,2.0,44,0.00,,,0.00,VWS V14.00,2013-05-26 19:09:00,
2013-05-26 15:15:00,78.2,56.3,30.16,West,277,1.0,3.0,47,0.00,,,0.00,VWS V14.00,2013-05-26 19:15:00,
2013-05-26 15:20:00,78.4,54.1,30.16,NNE,15,1.0,3.0,43,0.00,,,0.00,VWS V14.00,2013-05-26 19:20:00,
2013-05-26 15:25:00,78.0,54.3,30.15,NE,50,0.0,2.0,44,0.00,,,0.00,VWS V14.00,2013-05-26 19:25:00,
2013-05-26 15:30:00,78.0,54.3,30.15,West,279,0.0,3.0,44,0.00,,,0.00,VWS V14.00,2013-05-26 19:30:00,
2013-05-26 15:35:00,77.9,54.3,30.15,NE,34,0.0,3.0,44,0.00,,,0.00,VWS V14.00,2013-05-26 19:35:00,
2013-05-26 15:40:00,77.9,54.9,30.15,NE,56,3.0,3.0,45,0.00,,,0.00,VWS V14.00,2013-05-26 19:40:00,
2013-05-26 15:46:00,77.5,53.3,30.15,NE,40,2.0,8.0,43,0.00,,,0.00,VWS V14.00,2013-05-26 19:46:00,
2013-05-26 15:51:00,76.9,55.2,30.14,ENE,57,2.0,8.0,47,0.00,,,0.00,VWS V14.00,2013-05-26 19:51:00,
2013-05-26 15:56:00,76.7,54.4,30.14,ENE,60,2.0,4.0,46,0.00,,,0.00,VWS V14.00,2013-05-26 19:56:00,
2013-05-26 16:01:00,76.8,55.1,30.14,NE,37,1.0,4.0,47,0.00,,,0.00,VWS V14.00,2013-05-26 20:01:00,
2013-05-26 16:06:00,76.4,54.1,30.14,ENE,65,2.0,6.0,46,0.00,,,0.00,VWS V14.00,2013-05-26 20:06:00,
2013-05-26 16:11:00,76.1,53.8,30.14,ENE,64,1.0,2.0,46,0.00,,,0.00,VWS V14.00,2013-05-26 20:11:00,
2013-05-26 16:16:00,76.0,54.9,30.14,NE,55,2.0,5.0,48,0.00,,,0.00,VWS V14.00,2013-05-26 20:16:00,
2013-05-26 16:21:00,75.8,54.2,30.14,NE,49,1.0,5.0,47,0.00,,,0.00,VWS V14.00,2013-05-26 20:21:00,
2013-05-26 16:27:00,75.7,56.3,30.14,ENE,59,0.0,5.0,51,0.00,,,0.00,VWS V14.00,2013-05-26 20:27:00,
2013-05-26 16:32:00,75.7,57.4,30.14,ENE,59,0.0,2.0,53,0.00,,,0.00,VWS V14.00,2013-05-26 20:32:00,
2013-05-26 16:37:00,75.6,56.2,30.15,NE,42,2.0,2.0,51,0.00,,,0.00,VWS V14.00,2013-05-26 20:37:00,
2013-05-26 16:42:00,75.4,57.1,30.15,NE,46,1.0,3.0,53,0.00,,,0.00,VWS V14.00,2013-05-26 20:42:00,
2013-05-26 16:47:00,75.3,57.0,30.15,NE,49,0.0,3.0,53,0.00,,,0.00,VWS V14.00,2013-05-26 20:47:00,
2013-05-26 16:52:00,75.1,56.3,30.15,ENE,57,3.0,4.0,52,0.00,,,0.00,VWS V14.00,2013-05-26 20:52:00,
2013-05-26 16:58:00,74.9,56.1,30.15,NE,56,0.0,4.0,52,0.00,,,0.00,VWS V14.00,2013-05-26 20:58:00,
2013-05-26 17:03:00,74.7,55.9,30.15,ENE,57,2.0,2.0,52,0.00,,,0.00,VWS V14.00,2013-05-26 21:03:00,
2013-05-26 17:08:00,74.7,56.5,30.15,ENE,61,3.0,3.0,53,0.00,,,0.00,VWS V14.00,2013-05-26 21:08:00,
2013-05-26 17:13:00,74.6,57.9,30.15,NE,45,1.0,3.0,56,0.00,,,0.00,VWS V14.00,2013-05-26 21:13:00,
2013-05-26 17:18:00,74.3,56.6,30.15,ENE,67,1.0,4.0,54,0.00,,,0.00,VWS V14.00,2013-05-26 21:18:00,
2013-05-26 17:23:00,74.0,54.7,30.15,NE,54,1.0,5.0,51,0.00,,,0.00,VWS V14.00,2013-05-26 21:23:00,
2013-05-26 17:29:00,73.8,55.1,30.15,NE,54,0.0,5.0,52,0.00,,,0.00,VWS V14.00,2013-05-26 21:29:00,
2013-05-26 17:34:00,73.7,54.5,30.15,NE,53,2.0,2.0,51,0.00,,,0.00,VWS V14.00,2013-05-26 21:34:00,
2013-05-26 17:39:00,73.5,54.8,30.15,NE,54,0.0,3.0,52,0.00,,,0.00,VWS V14.00,2013-05-26 21:39:00,
2013-05-26 17:44:00,73.5,55.3,30.15,NE,54,0.0,2.0,53,0.00,,,0.00,VWS V14.00,2013-05-26 21:44:00,
2013-05-26 17:49:00,73.5,55.9,30.15,NE,54,0.0,2.0,54,0.00,,,0.00,VWS V14.00,2013-05-26 21:49:00,
2013-05-26 17:54:00,73.6,55.4,30.15,NE,54,0.0,2.0,53,0.00,,,0.00,VWS V14.00,2013-05-26 21:54:00,
2013-05-26 18:00:00,73.5,53.2,30.15,ENE,57,2.0,3.0,49,0.00,,,0.00,VWS V14.00,2013-05-26 22:00:00,
2013-05-26 18:05:00,73.4,53.1,30.15,ENE,57,0.0,1.0,49,0.00,,,0.00,VWS V14.00,2013-05-26 22:05:00,
2013-05-26 18:10:00,73.2,53.5,30.14,ENE,67,0.0,3.0,50,0.00,,,0.00,VWS V14.00,2013-05-26 22:10:00,
2013-05-26 18:15:00,73.1,58.9,30.14,East,98,2.0,2.0,61,0.00,,,0.00,VWS V14.00,2013-05-26 22:15:00,
2013-05-26 18:20:00,72.8,57.2,30.15,SE,132,1.0,2.0,58,0.00,,,0.00,VWS V14.00,2013-05-26 22:20:00,
2013-05-26 18:25:00,72.7,58.0,30.15,SE,132,0.0,1.0,60,0.00,,,0.00,VWS V14.00,2013-05-26 22:25:00,
2013-05-26 18:31:00,72.6,55.0,30.15,SE,132,0.0,1.0,54,0.00,,,0.00,VWS V14.00,2013-05-26 22:31:00,
2013-05-26 18:36:00,72.7,57.6,30.15,SE,132,0.0,1.0,59,0.00,,,0.00,VWS V14.00,2013-05-26 22:36:00,
2013-05-26 18:41:00,72.8,55.7,30.15,SE,132,0.0,1.0,55,0.00,,,0.00,VWS V14.00,2013-05-26 22:41:00,
2013-05-26 18:46:00,73.0,54.9,30.15,SE,132,1.0,1.0,53,0.00,,,0.00,VWS V14.00,2013-05-26 22:46:00,
2013-05-26 18:51:00,73.0,54.9,30.15,West,280,0.0,0.0,53,0.00,,,0.00,VWS V14.00,2013-05-26 22:51:00,
2013-05-26 18:56:00,72.8,56.7,30.15,West,281,0.0,1.0,57,0.00,,,0.00,VWS V14.00,2013-05-26 22:56:00,
2013-05-26 19:01:00,72.5,59.6,30.15,West,280,0.0,0.0,64,0.00,,,0.00,VWS V14.00,2013-05-26 23:01:00,
2013-05-26 19:07:00,72.0,59.6,30.15,West,281,0.0,0.0,65,0.00,,,0.00,VWS V14.00,2013-05-26 23:07:00,
2013-05-26 19:12:00,71.5,59.6,30.16,West,281,1.0,1.0,66,0.00,,,0.00,VWS V14.00,2013-05-26 23:12:00,
2013-05-26 19:17:00,71.3,58.5,30.16,North,11,1.0,2.0,64,0.00,,,0.00,VWS V14.00,2013-05-26 23:17:00,
2013-05-26 19:22:00,71.4,60.3,30.16,NNE,12,0.0,1.0,68,0.00,,,0.00,VWS V14.00,2013-05-26 23:22:00,
2013-05-26 19:27:00,71.2,57.5,30.16,NNE,12,0.0,2.0,62,0.00,,,0.00,VWS V14.00,2013-05-26 23:27:00,
2013-05-26 19:32:00,71.1,60.4,30.16,NNE,12,0.0,0.0,69,0.00,,,0.00,VWS V14.00,2013-05-26 23:32:00,
2013-05-26 19:38:00,70.7,60.5,30.16,NNE,12,0.0,0.0,70,0.00,,,0.00,VWS V14.00,2013-05-26 23:38:00,
2013-05-26 19:43:00,70.1,60.7,30.16,North,11,0.0,0.0,72,0.00,,,0.00,VWS V14.00,2013-05-26 23:43:00,
2013-05-26 19:48:00,69.5,60.1,30.16,NNE,12,0.0,0.0,72,0.00,,,0.00,VWS V14.00,2013-05-26 23:48:00,
2013-05-26 19:53:00,68.8,59.8,30.16,NNE,12,0.0,0.0,73,0.00,,,0.00,VWS V14.00,2013-05-26 23:53:00,
2013-05-26 19:58:00,68.2,59.6,30.17,NNE,12,0.0,1.0,74,0.00,,,0.00,VWS V14.00,2013-05-26 23:58:00,
2013-05-26 20:03:00,67.6,60.1,30.17,North,11,0.0,0.0,77,0.00,,,0.00,VWS V14.00,2013-05-27 00:03:00,
2013-05-26 20:09:00,67.2,60.8,30.17,NNE,12,0.0,0.0,80,0.00,,,0.00,VWS V14.00,2013-05-27 00:09:00,
2013-05-26 20:14:00,66.9,60.9,30.17,NNE,12,0.0,0.0,81,0.00,,,0.00,VWS V14.00,2013-05-27 00:14:00,
2013-05-26 20:19:00,66.6,60.2,30.17,NNE,12,0.0,0.0,80,0.00,,,0.00,VWS V14.00,2013-05-27 00:19:00,
2013-05-26 20:24:00,66.3,61.0,30.17,NNE,12,0.0,0.0,83,0.00,,,0.00,VWS V14.00,2013-05-27 00:24:00,
2013-05-26 20:29:00,65.9,60.6,30.17,North,11,0.0,0.0,83,0.00,,,0.00,VWS V14.00,2013-05-27 00:29:00,
2013-05-26 20:34:00,65.4,60.1,30.17,NNE,12,0.0,0.0,83,0.00,,,0.00,VWS V14.00,2013-05-27 00:34:00,
2013-05-26 20:40:00,64.9,59.6,30.17,NNE,12,0.0,0.0,83,0.00,,,0.00,VWS V14.00,2013-05-27 00:40:00,
2013-05-26 20:45:00,64.6,60.0,30.17,North,11,0.0,0.0,85,0.00,,,0.00,VWS V14.00,2013-05-27 00:45:00,
2013-05-26 20:50:00,64.2,59.3,30.17,North,11,0.0,0.0,84,0.00,,,0.00,VWS V14.00,2013-05-27 00:50:00,
2013-05-26 20:55:00,63.9,59.3,30.17,NNE,12,0.0,0.0,85,0.00,,,0.00,VWS V14.00,2013-05-27 00:55:00,
2013-05-26 21:00:00,63.6,59.3,30.17,NNE,12,0.0,0.0,86,0.00,,,0.00,VWS V14.00,2013-05-27 01:00:00,
2013-05-26 21:05:00,63.2,59.0,30.17,NNE,12,0.0,0.0,86,0.00,,,0.00,VWS V14.00,2013-05-27 01:05:00,
2013-05-26 21:11:00,62.9,59.0,30.18,NNE,12,0.0,0.0,87,0.00,,,0.00,VWS V14.00,2013-05-27 01:11:00,
2013-05-26 21:16:00,62.6,58.7,30.18,NNE,12,0.0,0.0,87,0.00,,,0.00,VWS V14.00,2013-05-27 01:16:00,
2013-05-26 21:21:00,62.3,58.1,30.18,NNE,12,0.0,0.0,86,0.00,,,0.00,VWS V14.00,2013-05-27 01:21:00,
2013-05-26 21:26:00,62.0,58.1,30.18,NNE,12,0.0,0.0,87,0.00,,,0.00,VWS V14.00,2013-05-27 01:26:00,
2013-05-26 21:31:00,61.8,57.9,30.18,North,11,0.0,0.0,87,0.00,,,0.00,VWS V14.00,2013-05-27 01:31:00,
2013-05-26 21:36:00,61.5,57.6,30.18,North,11,0.0,0.0,87,0.00,,,0.00,VWS V14.00,2013-05-27 01:36:00,
2013-05-26 21:42:00,61.3,57.7,30.18,North,11,0.0,0.0,88,0.00,,,0.00,VWS V14.00,2013-05-27 01:42:00,
2013-05-26 21:47:00,61.0,57.4,30.18,NNE,12,0.0,0.0,88,0.00,,,0.00,VWS V14.00,2013-05-27 01:47:00,
2013-05-26 21:52:00,60.8,57.2,30.18,NNE,12,0.0,0.0,88,0.00,,,0.00,VWS V14.00,2013-05-27 01:52:00,
2013-05-26 21:57:00,60.6,57.3,30.18,NNE,12,0.0,0.0,89,0.00,,,0.00,VWS V14.00,2013-05-27 01:57:00,
2013-05-26 22:02:00,60.4,57.2,30.18,North,11,0.0,0.0,89,0.00,,,0.00,VWS V14.00,2013-05-27 02:02:00,
2013-05-26 22:07:00,60.2,57.0,30.18,NNE,12,0.0,0.0,89,0.00,,,0.00,VWS V14.00,2013-05-27 02:07:00,
2013-05-26 22:12:00,60.0,56.8,30.18,North,11,0.0,0.0,89,0.00,,,0.00,VWS V14.00,2013-05-27 02:12:00,
2013-05-26 22:17:00,59.7,56.5,30.19,NNE,12,0.0,0.0,89,0.00,,,0.00,VWS V14.00,2013-05-27 02:17:00,
2013-05-26 22:23:00,59.6,56.7,30.19,North,11,0.0,0.0,90,0.00,,,0.00,VWS V14.00,2013-05-27 02:23:00,
2013-05-26 22:28:00,59.4,56.5,30.19,NNE,12,0.0,0.0,90,0.00,,,0.00,VWS V14.00,2013-05-27 02:28:00,
2013-05-26 22:33:00,59.2,56.3,30.19,NNE,12,0.0,0.0,90,0.00,,,0.00,VWS V14.00,2013-05-27 02:33:00,
2013-05-26 22:38:00,59.0,56.1,30.19,NNE,12,0.0,0.0,90,0.00,,,0.00,VWS V14.00,2013-05-27 02:38:00,
2013-05-26 22:43:00,58.8,56.2,30.19,NNE,12,0.0,0.0,91,0.00,,,0.00,VWS V14.00,2013-05-27 02:43:00,
2013-05-26 22:48:00,58.7,56.1,30.19,NNE,12,0.0,0.0,91,0.00,,,0.00,VWS V14.00,2013-05-27 02:48:00,
2013-05-26 22:54:00,58.6,56.0,30.19,NNE,12,0.0,0.0,91,0.00,,,0.00,VWS V14.00,2013-05-27 02:54:00,
2013-05-26 22:59:00,58.5,56.2,30.20,North,11,0.0,0.0,92,0.00,,,0.00,VWS V14.00,2013-05-27 02:59:00,
2013-05-26 23:04:00,58.3,55.7,30.20,NNE,12,0.0,0.0,91,0.00,,,0.00,VWS V14.00,2013-05-27 03:04:00,
2013-05-26 23:09:00,58.0,55.7,30.20,NNE,12,0.0,0.0,92,0.00,,,0.00,VWS V14.00,2013-05-27 03:09:00,
2013-05-26 23:14:00,57.8,55.2,30.20,NNE,12,0.0,0.0,91,0.00,,,0.00,VWS V14.00,2013-05-27 03:14:00,
2013-05-26 23:19:00,57.7,55.4,30.20,NNE,12,0.0,0.0,92,0.00,,,0.00,VWS V14.00,2013-05-27 03:19:00,
2013-05-26 23:25:00,57.6,55.3,30.20,NNE,12,0.0,0.0,92,0.00,,,0.00,VWS V14.00,2013-05-27 03:25:00,
2013-05-26 23:30:00,57.4,55.1,30.19,NNE,12,0.0,0.0,92,0.00,,,0.00,VWS V14.00,2013-05-27 03:30:00,
2013-05-26 23:35:00,57.3,55.0,30.19,North,11,0.0,0.0,92,0.00,,,0.00,VWS V14.00,2013-05-27 03:35:00,
2013-05-26 23:40:00,57.2,54.9,30.19,NNE,12,0.0,0.0,92,0.00,,,0.00,VWS V14.00,2013-05-27 03:40:00,
2013-05-26 23:45:00,57.0,54.7,30.20,NNE,12,0.0,0.0,92,0.00,,,0.00,VWS V14.00,2013-05-27 03:45:00,
2013-05-26 23:50:00,56.9,54.9,30.19,NNE,12,0.0,0.0,93,0.00,,,0.00,VWS V14.00,2013-05-27 03:50:00,
2013-05-26 23:55:00,56.8,54.8,30.19,NNE,12,0.0,0.0,93,0.00,,,0.00,VWS V14.00,2013-05-27 03:55:00,